sensor_id;sensor_type;location;lat;lon;timestamp;P1;durP1;ratioP1;P2;durP2;ratioP2
71606;SDS011;60641;53.556;9.914;2023-01-08T00:01:04;5.50;;;1.80;;
71606;SDS011;60641;53.556;9.914;2023-01-08T00:03:44;4.30;;;1.60;;
71606;SDS011;60641;53.556;9.914;2023-01-08T00:06:12;5.50;;;1.80;;
71606;SDS011;60641;53.556;9.914;2023-01-08T00:08:40;6.60;;;2.10;;
71606;SDS011;60641;53.556;9.914;2023-01-08T00:11:07;7.10;;;2.60;;
71606;SDS011;60641;53.556;9.914;2023-01-08T00:13:34;6.40;;;2.70;;
71606;SDS011;60641;53.556;9.914;2023-01-08T00:16:04;5.30;;;2.00;;
71606;SDS011;60641;53.556;9.914;2023-01-08T00:18:31;6.90;;;2.00;;
71606;SDS011;60641;53.556;9.914;2023-01-08T00:20:57;5.10;;;1.80;;
71606;SDS011;60641;53.556;9.914;2023-01-08T00:23:24;5.20;;;1.90;;
71606;SDS011;60641;53.556;9.914;2023-01-08T00:25:51;6.00;;;1.90;;
71606;SDS011;60641;53.556;9.914;2023-01-08T00:28:17;5.10;;;1.60;;
71606;SDS011;60641;53.556;9.914;2023-01-08T00:30:46;6.40;;;2.10;;
71606;SDS011;60641;53.556;9.914;2023-01-08T00:33:13;5.60;;;1.50;;
71606;SDS011;60641;53.556;9.914;2023-01-08T00:35:40;4.60;;;1.80;;
71606;SDS011;60641;53.556;9.914;2023-01-08T00:38:06;6.70;;;2.30;;
71606;SDS011;60641;53.556;9.914;2023-01-08T00:40:33;5.00;;;1.90;;
71606;SDS011;60641;53.556;9.914;2023-01-08T00:43:00;4.90;;;1.80;;
71606;SDS011;60641;53.556;9.914;2023-01-08T00:45:27;5.40;;;2.10;;
71606;SDS011;60641;53.556;9.914;2023-01-08T00:47:53;6.60;;;2.20;;
71606;SDS011;60641;53.556;9.914;2023-01-08T00:50:20;5.00;;;1.80;;
71606;SDS011;60641;53.556;9.914;2023-01-08T00:52:46;5.40;;;2.00;;
71606;SDS011;60641;53.556;9.914;2023-01-08T00:55:13;5.20;;;2.00;;
71606;SDS011;60641;53.556;9.914;2023-01-08T00:57:39;4.90;;;1.80;;
71606;SDS011;60641;53.556;9.914;2023-01-08T01:00:06;4.70;;;1.90;;
71606;SDS011;60641;53.556;9.914;2023-01-08T01:02:34;5.80;;;1.70;;
71606;SDS011;60641;53.556;9.914;2023-01-08T01:05:01;7.00;;;1.90;;
71606;SDS011;60641;53.556;9.914;2023-01-08T01:07:28;5.50;;;1.80;;
71606;SDS011;60641;53.556;9.914;2023-01-08T01:09:54;7.20;;;2.00;;
71606;SDS011;60641;53.556;9.914;2023-01-08T01:12:21;6.30;;;2.10;;
71606;SDS011;60641;53.556;9.914;2023-01-08T01:14:47;6.30;;;1.90;;
71606;SDS011;60641;53.556;9.914;2023-01-08T01:17:14;5.80;;;1.90;;
71606;SDS011;60641;53.556;9.914;2023-01-08T01:19:40;6.20;;;3.20;;
71606;SDS011;60641;53.556;9.914;2023-01-08T01:22:07;5.10;;;1.70;;
71606;SDS011;60641;53.556;9.914;2023-01-08T01:24:33;5.70;;;1.90;;
71606;SDS011;60641;53.556;9.914;2023-01-08T01:27:00;7.70;;;2.40;;
71606;SDS011;60641;53.556;9.914;2023-01-08T01:29:26;5.80;;;2.00;;
71606;SDS011;60641;53.556;9.914;2023-01-08T01:31:53;4.80;;;1.80;;
71606;SDS011;60641;53.556;9.914;2023-01-08T01:34:19;5.50;;;1.80;;
71606;SDS011;60641;53.556;9.914;2023-01-08T01:36:46;8.20;;;2.20;;
71606;SDS011;60641;53.556;9.914;2023-01-08T01:39:12;6.10;;;2.00;;
71606;SDS011;60641;53.556;9.914;2023-01-08T01:41:40;5.10;;;1.90;;
71606;SDS011;60641;53.556;9.914;2023-01-08T01:47:00;5.00;;;1.80;;
71606;SDS011;60641;53.556;9.914;2023-01-08T01:49:29;6.60;;;2.00;;
71606;SDS011;60641;53.556;9.914;2023-01-08T01:51:56;6.70;;;1.90;;
71606;SDS011;60641;53.556;9.914;2023-01-08T01:54:27;7.10;;;2.20;;
71606;SDS011;60641;53.556;9.914;2023-01-08T01:56:55;5.70;;;2.00;;
71606;SDS011;60641;53.556;9.914;2023-01-08T01:59:21;6.60;;;2.70;;
71606;SDS011;60641;53.556;9.914;2023-01-08T02:01:48;6.70;;;2.50;;
71606;SDS011;60641;53.556;9.914;2023-01-08T02:04:14;6.20;;;2.30;;
71606;SDS011;60641;53.556;9.914;2023-01-08T02:06:43;5.90;;;2.20;;
71606;SDS011;60641;53.556;9.914;2023-01-08T02:11:49;7.70;;;2.00;;
71606;SDS011;60641;53.556;9.914;2023-01-08T02:14:41;6.50;;;2.00;;
71606;SDS011;60641;53.556;9.914;2023-01-08T02:17:11;5.90;;;2.10;;
71606;SDS011;60641;53.556;9.914;2023-01-08T02:19:42;4.80;;;1.70;;
71606;SDS011;60641;53.556;9.914;2023-01-08T02:24:55;8.50;;;2.00;;
71606;SDS011;60641;53.556;9.914;2023-01-08T02:27:27;6.20;;;2.00;;
71606;SDS011;60641;53.556;9.914;2023-01-08T02:29:55;5.70;;;2.00;;
71606;SDS011;60641;53.556;9.914;2023-01-08T02:32:25;5.20;;;1.80;;
71606;SDS011;60641;53.556;9.914;2023-01-08T02:34:52;6.40;;;2.00;;
71606;SDS011;60641;53.556;9.914;2023-01-08T02:37:20;5.80;;;1.90;;
71606;SDS011;60641;53.556;9.914;2023-01-08T02:40:06;5.30;;;1.90;;
71606;SDS011;60641;53.556;9.914;2023-01-08T02:42:44;5.10;;;2.00;;
71606;SDS011;60641;53.556;9.914;2023-01-08T02:47:50;5.00;;;1.60;;
71606;SDS011;60641;53.556;9.914;2023-01-08T02:50:36;5.30;;;2.00;;
71606;SDS011;60641;53.556;9.914;2023-01-08T02:53:09;6.10;;;2.10;;
71606;SDS011;60641;53.556;9.914;2023-01-08T02:55:41;7.00;;;1.80;;
71606;SDS011;60641;53.556;9.914;2023-01-08T02:58:10;6.10;;;2.10;;
71606;SDS011;60641;53.556;9.914;2023-01-08T03:00:38;6.00;;;2.10;;
71606;SDS011;60641;53.556;9.914;2023-01-08T03:03:11;7.60;;;1.90;;
71606;SDS011;60641;53.556;9.914;2023-01-08T03:05:41;6.80;;;2.10;;
71606;SDS011;60641;53.556;9.914;2023-01-08T03:08:09;5.00;;;1.80;;
71606;SDS011;60641;53.556;9.914;2023-01-08T03:10:37;6.40;;;2.00;;
71606;SDS011;60641;53.556;9.914;2023-01-08T03:13:06;5.50;;;2.00;;
71606;SDS011;60641;53.556;9.914;2023-01-08T03:15:40;6.40;;;2.00;;
71606;SDS011;60641;53.556;9.914;2023-01-08T03:18:10;6.20;;;2.00;;
71606;SDS011;60641;53.556;9.914;2023-01-08T03:20:38;6.70;;;2.00;;
71606;SDS011;60641;53.556;9.914;2023-01-08T03:23:05;6.50;;;2.00;;
71606;SDS011;60641;53.556;9.914;2023-01-08T03:25:34;6.20;;;1.90;;
71606;SDS011;60641;53.556;9.914;2023-01-08T03:28:04;6.00;;;2.00;;
71606;SDS011;60641;53.556;9.914;2023-01-08T03:30:33;5.60;;;1.80;;
71606;SDS011;60641;53.556;9.914;2023-01-08T03:33:01;7.00;;;2.40;;
71606;SDS011;60641;53.556;9.914;2023-01-08T03:35:28;8.10;;;2.30;;
71606;SDS011;60641;53.556;9.914;2023-01-08T03:37:57;6.80;;;2.20;;
71606;SDS011;60641;53.556;9.914;2023-01-08T03:40:38;5.80;;;2.20;;
71606;SDS011;60641;53.556;9.914;2023-01-08T03:43:08;6.80;;;2.00;;
71606;SDS011;60641;53.556;9.914;2023-01-08T03:45:35;5.50;;;2.00;;
71606;SDS011;60641;53.556;9.914;2023-01-08T03:48:02;5.80;;;1.90;;
71606;SDS011;60641;53.556;9.914;2023-01-08T03:50:29;5.50;;;1.90;;
71606;SDS011;60641;53.556;9.914;2023-01-08T03:52:57;6.80;;;2.30;;
71606;SDS011;60641;53.556;9.914;2023-01-08T03:55:23;6.10;;;2.00;;
71606;SDS011;60641;53.556;9.914;2023-01-08T03:57:50;6.20;;;2.20;;
71606;SDS011;60641;53.556;9.914;2023-01-08T04:00:16;5.50;;;1.90;;
71606;SDS011;60641;53.556;9.914;2023-01-08T04:02:43;6.70;;;2.10;;
71606;SDS011;60641;53.556;9.914;2023-01-08T04:05:10;6.80;;;2.10;;
71606;SDS011;60641;53.556;9.914;2023-01-08T04:07:36;8.40;;;2.10;;
71606;SDS011;60641;53.556;9.914;2023-01-08T04:10:03;5.50;;;2.10;;
71606;SDS011;60641;53.556;9.914;2023-01-08T04:12:30;4.70;;;1.80;;
71606;SDS011;60641;53.556;9.914;2023-01-08T04:14:56;6.90;;;2.00;;
71606;SDS011;60641;53.556;9.914;2023-01-08T04:17:23;5.80;;;2.10;;
71606;SDS011;60641;53.556;9.914;2023-01-08T04:19:49;6.20;;;1.60;;
71606;SDS011;60641;53.556;9.914;2023-01-08T04:22:16;4.90;;;1.90;;
71606;SDS011;60641;53.556;9.914;2023-01-08T04:24:42;6.00;;;1.80;;
71606;SDS011;60641;53.556;9.914;2023-01-08T04:27:08;4.50;;;1.70;;
71606;SDS011;60641;53.556;9.914;2023-01-08T04:29:35;5.20;;;1.90;;
71606;SDS011;60641;53.556;9.914;2023-01-08T04:32:01;4.80;;;1.70;;
71606;SDS011;60641;53.556;9.914;2023-01-08T04:34:28;5.70;;;1.80;;
71606;SDS011;60641;53.556;9.914;2023-01-08T04:36:54;4.50;;;1.60;;
71606;SDS011;60641;53.556;9.914;2023-01-08T04:39:21;5.60;;;2.20;;
71606;SDS011;60641;53.556;9.914;2023-01-08T04:41:47;7.40;;;2.50;;
71606;SDS011;60641;53.556;9.914;2023-01-08T04:44:14;6.60;;;2.20;;
71606;SDS011;60641;53.556;9.914;2023-01-08T04:46:40;5.70;;;2.00;;
71606;SDS011;60641;53.556;9.914;2023-01-08T04:49:06;7.10;;;2.40;;
71606;SDS011;60641;53.556;9.914;2023-01-08T04:51:33;6.00;;;2.20;;
71606;SDS011;60641;53.556;9.914;2023-01-08T04:53:59;5.90;;;1.90;;
71606;SDS011;60641;53.556;9.914;2023-01-08T04:56:26;6.60;;;2.00;;
71606;SDS011;60641;53.556;9.914;2023-01-08T04:58:52;6.40;;;1.90;;
71606;SDS011;60641;53.556;9.914;2023-01-08T05:01:20;5.60;;;2.10;;
71606;SDS011;60641;53.556;9.914;2023-01-08T05:03:51;5.80;;;2.00;;
71606;SDS011;60641;53.556;9.914;2023-01-08T05:06:28;6.80;;;1.80;;
71606;SDS011;60641;53.556;9.914;2023-01-08T05:08:56;6.50;;;2.30;;
71606;SDS011;60641;53.556;9.914;2023-01-08T05:11:22;5.20;;;1.90;;
71606;SDS011;60641;53.556;9.914;2023-01-08T05:13:50;4.90;;;1.80;;
71606;SDS011;60641;53.556;9.914;2023-01-08T05:16:17;6.70;;;1.90;;
71606;SDS011;60641;53.556;9.914;2023-01-08T05:18:44;5.60;;;2.00;;
71606;SDS011;60641;53.556;9.914;2023-01-08T05:21:10;6.30;;;2.20;;
71606;SDS011;60641;53.556;9.914;2023-01-08T05:23:38;4.90;;;1.90;;
71606;SDS011;60641;53.556;9.914;2023-01-08T05:26:05;6.10;;;1.80;;
71606;SDS011;60641;53.556;9.914;2023-01-08T05:28:32;6.10;;;1.90;;
71606;SDS011;60641;53.556;9.914;2023-01-08T05:30:59;8.10;;;2.00;;
71606;SDS011;60641;53.556;9.914;2023-01-08T05:33:25;5.10;;;1.90;;
71606;SDS011;60641;53.556;9.914;2023-01-08T05:35:52;7.10;;;2.10;;
71606;SDS011;60641;53.556;9.914;2023-01-08T05:38:18;6.10;;;1.80;;
71606;SDS011;60641;53.556;9.914;2023-01-08T05:40:45;6.20;;;2.10;;
71606;SDS011;60641;53.556;9.914;2023-01-08T05:43:11;5.30;;;1.60;;
71606;SDS011;60641;53.556;9.914;2023-01-08T05:45:38;5.60;;;2.20;;
71606;SDS011;60641;53.556;9.914;2023-01-08T05:48:04;5.00;;;1.80;;
71606;SDS011;60641;53.556;9.914;2023-01-08T05:50:34;5.90;;;2.00;;
71606;SDS011;60641;53.556;9.914;2023-01-08T05:53:04;5.10;;;1.80;;
71606;SDS011;60641;53.556;9.914;2023-01-08T05:55:32;7.00;;;1.80;;
71606;SDS011;60641;53.556;9.914;2023-01-08T05:58:04;5.40;;;1.90;;
71606;SDS011;60641;53.556;9.914;2023-01-08T06:00:31;6.20;;;1.90;;
71606;SDS011;60641;53.556;9.914;2023-01-08T06:02:59;5.10;;;1.60;;
71606;SDS011;60641;53.556;9.914;2023-01-08T06:05:25;6.20;;;1.70;;
71606;SDS011;60641;53.556;9.914;2023-01-08T06:07:52;5.40;;;1.70;;
71606;SDS011;60641;53.556;9.914;2023-01-08T06:10:18;5.80;;;1.90;;
71606;SDS011;60641;53.556;9.914;2023-01-08T06:12:45;5.50;;;1.90;;
71606;SDS011;60641;53.556;9.914;2023-01-08T06:15:12;5.70;;;2.00;;
71606;SDS011;60641;53.556;9.914;2023-01-08T06:17:38;7.00;;;1.90;;
71606;SDS011;60641;53.556;9.914;2023-01-08T06:20:05;5.60;;;1.80;;
71606;SDS011;60641;53.556;9.914;2023-01-08T06:22:32;6.70;;;2.10;;
71606;SDS011;60641;53.556;9.914;2023-01-08T06:24:59;6.80;;;1.90;;
71606;SDS011;60641;53.556;9.914;2023-01-08T06:27:26;6.60;;;2.20;;
71606;SDS011;60641;53.556;9.914;2023-01-08T06:29:52;5.30;;;2.00;;
71606;SDS011;60641;53.556;9.914;2023-01-08T06:32:19;5.50;;;1.90;;
71606;SDS011;60641;53.556;9.914;2023-01-08T06:34:45;6.50;;;2.10;;
71606;SDS011;60641;53.556;9.914;2023-01-08T06:37:12;8.50;;;2.40;;
71606;SDS011;60641;53.556;9.914;2023-01-08T06:39:38;7.40;;;2.50;;
71606;SDS011;60641;53.556;9.914;2023-01-08T06:42:04;6.60;;;2.50;;
71606;SDS011;60641;53.556;9.914;2023-01-08T06:44:31;5.80;;;2.00;;
71606;SDS011;60641;53.556;9.914;2023-01-08T06:46:57;6.20;;;2.30;;
71606;SDS011;60641;53.556;9.914;2023-01-08T06:49:24;7.20;;;2.30;;
71606;SDS011;60641;53.556;9.914;2023-01-08T06:51:50;7.30;;;2.20;;
71606;SDS011;60641;53.556;9.914;2023-01-08T06:54:17;6.50;;;2.20;;
71606;SDS011;60641;53.556;9.914;2023-01-08T06:56:46;10.50;;;2.20;;
71606;SDS011;60641;53.556;9.914;2023-01-08T06:59:13;6.20;;;1.80;;
71606;SDS011;60641;53.556;9.914;2023-01-08T07:01:40;5.60;;;1.80;;
71606;SDS011;60641;53.556;9.914;2023-01-08T07:04:07;6.10;;;2.00;;
71606;SDS011;60641;53.556;9.914;2023-01-08T07:06:33;9.10;;;2.00;;
71606;SDS011;60641;53.556;9.914;2023-01-08T07:09:00;6.10;;;1.90;;
71606;SDS011;60641;53.556;9.914;2023-01-08T07:11:26;5.40;;;2.00;;
71606;SDS011;60641;53.556;9.914;2023-01-08T07:13:54;5.60;;;2.00;;
71606;SDS011;60641;53.556;9.914;2023-01-08T07:16:20;6.10;;;1.60;;
71606;SDS011;60641;53.556;9.914;2023-01-08T07:18:47;5.50;;;1.60;;
71606;SDS011;60641;53.556;9.914;2023-01-08T07:21:13;5.50;;;1.70;;
71606;SDS011;60641;53.556;9.914;2023-01-08T07:23:41;6.00;;;2.10;;
71606;SDS011;60641;53.556;9.914;2023-01-08T07:26:07;6.90;;;1.90;;
71606;SDS011;60641;53.556;9.914;2023-01-08T07:28:34;6.30;;;1.80;;
71606;SDS011;60641;53.556;9.914;2023-01-08T07:31:04;5.90;;;1.90;;
71606;SDS011;60641;53.556;9.914;2023-01-08T07:33:31;5.80;;;1.90;;
71606;SDS011;60641;53.556;9.914;2023-01-08T07:35:57;5.20;;;2.00;;
71606;SDS011;60641;53.556;9.914;2023-01-08T07:38:23;6.20;;;1.50;;
71606;SDS011;60641;53.556;9.914;2023-01-08T07:40:50;6.00;;;1.80;;
71606;SDS011;60641;53.556;9.914;2023-01-08T07:43:17;4.80;;;1.60;;
71606;SDS011;60641;53.556;9.914;2023-01-08T07:45:44;5.10;;;1.50;;
71606;SDS011;60641;53.556;9.914;2023-01-08T07:48:10;6.60;;;1.90;;
71606;SDS011;60641;53.556;9.914;2023-01-08T07:50:41;5.30;;;1.60;;
71606;SDS011;60641;53.556;9.914;2023-01-08T07:53:09;4.90;;;1.80;;
71606;SDS011;60641;53.556;9.914;2023-01-08T07:55:36;4.90;;;1.70;;
71606;SDS011;60641;53.556;9.914;2023-01-08T07:58:09;4.90;;;1.60;;
71606;SDS011;60641;53.556;9.914;2023-01-08T08:00:37;4.50;;;1.50;;
71606;SDS011;60641;53.556;9.914;2023-01-08T08:03:05;3.80;;;1.60;;
71606;SDS011;60641;53.556;9.914;2023-01-08T08:05:32;5.60;;;1.80;;
71606;SDS011;60641;53.556;9.914;2023-01-08T08:07:59;5.10;;;1.60;;
71606;SDS011;60641;53.556;9.914;2023-01-08T08:10:26;5.40;;;1.90;;
71606;SDS011;60641;53.556;9.914;2023-01-08T08:12:52;4.70;;;1.60;;
71606;SDS011;60641;53.556;9.914;2023-01-08T08:15:19;4.90;;;1.70;;
71606;SDS011;60641;53.556;9.914;2023-01-08T08:17:45;5.90;;;1.50;;
71606;SDS011;60641;53.556;9.914;2023-01-08T08:20:13;6.30;;;1.80;;
71606;SDS011;60641;53.556;9.914;2023-01-08T08:22:40;4.40;;;1.60;;
71606;SDS011;60641;53.556;9.914;2023-01-08T08:25:06;5.60;;;1.40;;
71606;SDS011;60641;53.556;9.914;2023-01-08T08:27:33;5.10;;;1.50;;
71606;SDS011;60641;53.556;9.914;2023-01-08T08:30:00;4.70;;;1.80;;
71606;SDS011;60641;53.556;9.914;2023-01-08T08:32:26;5.00;;;1.80;;
71606;SDS011;60641;53.556;9.914;2023-01-08T08:34:52;5.10;;;1.60;;
71606;SDS011;60641;53.556;9.914;2023-01-08T08:37:19;5.60;;;1.70;;
71606;SDS011;60641;53.556;9.914;2023-01-08T08:39:45;6.10;;;1.70;;
71606;SDS011;60641;53.556;9.914;2023-01-08T08:42:12;6.40;;;1.60;;
71606;SDS011;60641;53.556;9.914;2023-01-08T08:44:38;5.00;;;1.80;;
71606;SDS011;60641;53.556;9.914;2023-01-08T08:47:07;5.40;;;1.70;;
71606;SDS011;60641;53.556;9.914;2023-01-08T08:49:34;7.20;;;2.80;;
71606;SDS011;60641;53.556;9.914;2023-01-08T08:52:02;4.40;;;1.80;;
71606;SDS011;60641;53.556;9.914;2023-01-08T08:54:29;4.70;;;1.80;;
71606;SDS011;60641;53.556;9.914;2023-01-08T08:56:55;7.10;;;1.50;;
71606;SDS011;60641;53.556;9.914;2023-01-08T08:59:21;6.00;;;1.70;;
71606;SDS011;60641;53.556;9.914;2023-01-08T09:01:48;4.30;;;1.50;;
71606;SDS011;60641;53.556;9.914;2023-01-08T09:04:14;4.50;;;1.40;;
71606;SDS011;60641;53.556;9.914;2023-01-08T09:06:41;6.20;;;2.00;;
71606;SDS011;60641;53.556;9.914;2023-01-08T09:09:07;6.50;;;2.10;;
71606;SDS011;60641;53.556;9.914;2023-01-08T09:11:34;5.70;;;1.80;;
71606;SDS011;60641;53.556;9.914;2023-01-08T09:14:01;7.60;;;2.30;;
71606;SDS011;60641;53.556;9.914;2023-01-08T09:16:27;7.40;;;2.00;;
71606;SDS011;60641;53.556;9.914;2023-01-08T09:18:53;8.60;;;1.90;;
71606;SDS011;60641;53.556;9.914;2023-01-08T09:21:21;5.90;;;1.80;;
71606;SDS011;60641;53.556;9.914;2023-01-08T09:23:47;5.60;;;2.10;;
71606;SDS011;60641;53.556;9.914;2023-01-08T09:26:14;5.70;;;1.90;;
71606;SDS011;60641;53.556;9.914;2023-01-08T09:28:41;6.50;;;2.00;;
71606;SDS011;60641;53.556;9.914;2023-01-08T09:31:07;7.70;;;2.00;;
71606;SDS011;60641;53.556;9.914;2023-01-08T09:33:34;6.80;;;1.80;;
71606;SDS011;60641;53.556;9.914;2023-01-08T09:36:00;7.10;;;2.00;;
71606;SDS011;60641;53.556;9.914;2023-01-08T09:38:27;8.10;;;3.20;;
71606;SDS011;60641;53.556;9.914;2023-01-08T09:40:54;6.50;;;1.70;;
71606;SDS011;60641;53.556;9.914;2023-01-08T09:43:23;6.00;;;1.90;;
71606;SDS011;60641;53.556;9.914;2023-01-08T09:45:52;5.60;;;1.90;;
71606;SDS011;60641;53.556;9.914;2023-01-08T09:48:28;8.00;;;2.40;;
71606;SDS011;60641;53.556;9.914;2023-01-08T09:50:58;5.30;;;1.60;;
71606;SDS011;60641;53.556;9.914;2023-01-08T09:53:24;5.20;;;1.80;;
71606;SDS011;60641;53.556;9.914;2023-01-08T09:55:53;6.60;;;1.70;;
71606;SDS011;60641;53.556;9.914;2023-01-08T10:01:10;5.50;;;1.80;;
71606;SDS011;60641;53.556;9.914;2023-01-08T10:03:40;6.20;;;1.80;;
71606;SDS011;60641;53.556;9.914;2023-01-08T10:06:10;6.20;;;2.10;;
71606;SDS011;60641;53.556;9.914;2023-01-08T10:08:37;5.60;;;1.60;;
71606;SDS011;60641;53.556;9.914;2023-01-08T10:11:04;5.50;;;1.60;;
71606;SDS011;60641;53.556;9.914;2023-01-08T10:13:32;8.00;;;1.70;;
71606;SDS011;60641;53.556;9.914;2023-01-08T10:16:00;6.80;;;1.60;;
71606;SDS011;60641;53.556;9.914;2023-01-08T10:18:30;6.30;;;1.50;;
71606;SDS011;60641;53.556;9.914;2023-01-08T10:20:58;4.20;;;1.40;;
71606;SDS011;60641;53.556;9.914;2023-01-08T10:23:24;7.10;;;2.10;;
71606;SDS011;60641;53.556;9.914;2023-01-08T10:25:58;4.00;;;1.10;;
71606;SDS011;60641;53.556;9.914;2023-01-08T10:28:30;4.70;;;1.20;;
71606;SDS011;60641;53.556;9.914;2023-01-08T10:31:05;4.20;;;1.20;;
71606;SDS011;60641;53.556;9.914;2023-01-08T10:33:38;4.70;;;1.10;;
71606;SDS011;60641;53.556;9.914;2023-01-08T10:36:06;3.30;;;0.90;;
71606;SDS011;60641;53.556;9.914;2023-01-08T10:38:39;5.80;;;1.20;;
71606;SDS011;60641;53.556;9.914;2023-01-08T10:41:08;4.90;;;1.10;;
71606;SDS011;60641;53.556;9.914;2023-01-08T10:43:41;5.40;;;1.20;;
71606;SDS011;60641;53.556;9.914;2023-01-08T10:47:02;5.80;;;1.00;;
71606;SDS011;60641;53.556;9.914;2023-01-08T10:49:25;4.30;;;1.00;;
71606;SDS011;60641;53.556;9.914;2023-01-08T10:51:57;10.30;;;2.50;;
71606;SDS011;60641;53.556;9.914;2023-01-08T10:54:37;6.60;;;1.60;;
71606;SDS011;60641;53.556;9.914;2023-01-08T10:57:21;6.40;;;1.40;;
71606;SDS011;60641;53.556;9.914;2023-01-08T10:59:49;4.70;;;1.20;;
71606;SDS011;60641;53.556;9.914;2023-01-08T11:05:02;4.80;;;1.30;;
71606;SDS011;60641;53.556;9.914;2023-01-08T11:07:30;5.00;;;1.50;;
71606;SDS011;60641;53.556;9.914;2023-01-08T11:09:57;4.40;;;1.30;;
71606;SDS011;60641;53.556;9.914;2023-01-08T11:12:31;3.80;;;1.10;;
71606;SDS011;60641;53.556;9.914;2023-01-08T11:14:59;5.30;;;1.40;;
71606;SDS011;60641;53.556;9.914;2023-01-08T11:17:26;3.40;;;1.10;;
71606;SDS011;60641;53.556;9.914;2023-01-08T11:19:53;3.90;;;1.20;;
71606;SDS011;60641;53.556;9.914;2023-01-08T11:22:21;4.80;;;1.30;;
71606;SDS011;60641;53.556;9.914;2023-01-08T11:24:48;4.30;;;1.40;;
71606;SDS011;60641;53.556;9.914;2023-01-08T11:27:24;4.90;;;1.70;;
71606;SDS011;60641;53.556;9.914;2023-01-08T11:30:04;5.60;;;1.50;;
71606;SDS011;60641;53.556;9.914;2023-01-08T11:35:27;5.20;;;1.40;;
71606;SDS011;60641;53.556;9.914;2023-01-08T11:37:57;4.40;;;1.30;;
71606;SDS011;60641;53.556;9.914;2023-01-08T11:40:31;2.90;;;1.00;;
71606;SDS011;60641;53.556;9.914;2023-01-08T11:52:16;5.80;;;1.00;;
71606;SDS011;60641;53.556;9.914;2023-01-08T11:55:00;5.20;;;1.30;;
71606;SDS011;60641;53.556;9.914;2023-01-08T12:06:09;4.20;;;0.90;;
71606;SDS011;60641;53.556;9.914;2023-01-08T12:08:59;4.40;;;1.00;;
71606;SDS011;60641;53.556;9.914;2023-01-08T12:11:50;4.10;;;1.00;;
71606;SDS011;60641;53.556;9.914;2023-01-08T12:17:18;4.30;;;1.20;;
71606;SDS011;60641;53.556;9.914;2023-01-08T12:22:43;6.50;;;1.60;;
71606;SDS011;60641;53.556;9.914;2023-01-08T12:36:08;3.80;;;0.70;;
71606;SDS011;60641;53.556;9.914;2023-01-08T12:38:40;2.10;;;0.70;;
71606;SDS011;60641;53.556;9.914;2023-01-08T12:41:10;5.30;;;0.80;;
71606;SDS011;60641;53.556;9.914;2023-01-08T12:43:43;2.00;;;0.70;;
71606;SDS011;60641;53.556;9.914;2023-01-08T12:46:19;3.90;;;0.80;;
71606;SDS011;60641;53.556;9.914;2023-01-08T12:48:47;2.70;;;0.80;;
71606;SDS011;60641;53.556;9.914;2023-01-08T12:52:01;2.70;;;0.80;;
71606;SDS011;60641;53.556;9.914;2023-01-08T12:54:35;3.70;;;1.00;;
71606;SDS011;60641;53.556;9.914;2023-01-08T12:57:11;4.50;;;1.00;;
71606;SDS011;60641;53.556;9.914;2023-01-08T13:07:50;3.10;;;1.00;;
71606;SDS011;60641;53.556;9.914;2023-01-08T13:10:21;6.50;;;1.40;;
71606;SDS011;60641;53.556;9.914;2023-01-08T13:12:56;5.80;;;1.40;;
71606;SDS011;60641;53.556;9.914;2023-01-08T13:15:27;4.10;;;1.20;;
71606;SDS011;60641;53.556;9.914;2023-01-08T13:17:55;2.90;;;1.10;;
71606;SDS011;60641;53.556;9.914;2023-01-08T13:20:28;3.20;;;1.10;;
71606;SDS011;60641;53.556;9.914;2023-01-08T13:23:03;4.10;;;1.30;;
71606;SDS011;60641;53.556;9.914;2023-01-08T13:27:58;3.60;;;1.10;;
71606;SDS011;60641;53.556;9.914;2023-01-08T13:38:41;2.70;;;0.80;;
71606;SDS011;60641;53.556;9.914;2023-01-08T13:46:31;3.70;;;0.80;;
71606;SDS011;60641;53.556;9.914;2023-01-08T13:49:08;3.50;;;1.00;;
71606;SDS011;60641;53.556;9.914;2023-01-08T13:51:43;3.90;;;0.80;;
71606;SDS011;60641;53.556;9.914;2023-01-08T13:56:37;5.10;;;1.20;;
71606;SDS011;60641;53.556;9.914;2023-01-08T13:59:04;8.20;;;1.00;;
71606;SDS011;60641;53.556;9.914;2023-01-08T14:01:31;4.90;;;1.40;;
71606;SDS011;60641;53.556;9.914;2023-01-08T14:03:57;3.20;;;0.70;;
71606;SDS011;60641;53.556;9.914;2023-01-08T14:06:25;4.10;;;0.70;;
71606;SDS011;60641;53.556;9.914;2023-01-08T14:08:54;4.40;;;0.80;;
71606;SDS011;60641;53.556;9.914;2023-01-08T14:11:22;3.50;;;0.60;;
71606;SDS011;60641;53.556;9.914;2023-01-08T14:13:53;4.60;;;1.00;;
71606;SDS011;60641;53.556;9.914;2023-01-08T14:16:20;4.60;;;0.80;;
71606;SDS011;60641;53.556;9.914;2023-01-08T14:18:46;3.70;;;0.70;;
71606;SDS011;60641;53.556;9.914;2023-01-08T14:21:13;5.10;;;0.80;;
71606;SDS011;60641;53.556;9.914;2023-01-08T14:23:41;4.10;;;0.70;;
71606;SDS011;60641;53.556;9.914;2023-01-08T14:26:19;3.80;;;0.70;;
71606;SDS011;60641;53.556;9.914;2023-01-08T14:28:52;6.20;;;1.00;;
71606;SDS011;60641;53.556;9.914;2023-01-08T14:31:23;6.60;;;1.10;;
71606;SDS011;60641;53.556;9.914;2023-01-08T14:33:55;6.20;;;0.60;;
71606;SDS011;60641;53.556;9.914;2023-01-08T14:36:23;3.90;;;0.60;;
71606;SDS011;60641;53.556;9.914;2023-01-08T14:38:49;4.80;;;0.60;;
71606;SDS011;60641;53.556;9.914;2023-01-08T14:41:19;4.90;;;0.80;;
71606;SDS011;60641;53.556;9.914;2023-01-08T14:44:13;3.80;;;0.60;;
71606;SDS011;60641;53.556;9.914;2023-01-08T14:46:41;4.70;;;0.70;;
71606;SDS011;60641;53.556;9.914;2023-01-08T14:49:14;5.30;;;0.90;;
71606;SDS011;60641;53.556;9.914;2023-01-08T14:51:54;6.70;;;0.80;;
71606;SDS011;60641;53.556;9.914;2023-01-08T14:54:22;5.60;;;1.00;;
71606;SDS011;60641;53.556;9.914;2023-01-08T14:56:52;4.70;;;0.60;;
71606;SDS011;60641;53.556;9.914;2023-01-08T14:59:20;6.30;;;0.80;;
71606;SDS011;60641;53.556;9.914;2023-01-08T15:01:51;7.10;;;0.70;;
71606;SDS011;60641;53.556;9.914;2023-01-08T15:04:20;6.90;;;0.90;;
71606;SDS011;60641;53.556;9.914;2023-01-08T15:06:48;5.00;;;0.80;;
71606;SDS011;60641;53.556;9.914;2023-01-08T15:09:23;7.40;;;1.50;;
71606;SDS011;60641;53.556;9.914;2023-01-08T15:11:54;10.60;;;1.10;;
71606;SDS011;60641;53.556;9.914;2023-01-08T15:14:22;10.00;;;1.20;;
71606;SDS011;60641;53.556;9.914;2023-01-08T15:16:50;6.50;;;1.10;;
71606;SDS011;60641;53.556;9.914;2023-01-08T15:19:23;6.70;;;1.00;;
71606;SDS011;60641;53.556;9.914;2023-01-08T15:21:52;6.60;;;0.90;;
71606;SDS011;60641;53.556;9.914;2023-01-08T15:24:30;6.70;;;1.70;;
71606;SDS011;60641;53.556;9.914;2023-01-08T15:26:58;6.80;;;0.90;;
71606;SDS011;60641;53.556;9.914;2023-01-08T15:29:36;5.50;;;0.90;;
71606;SDS011;60641;53.556;9.914;2023-01-08T15:34:40;14.70;;;4.60;;
71606;SDS011;60641;53.556;9.914;2023-01-08T15:37:08;4.90;;;0.90;;
71606;SDS011;60641;53.556;9.914;2023-01-08T15:39:34;8.60;;;1.00;;
71606;SDS011;60641;53.556;9.914;2023-01-08T15:42:04;5.20;;;0.80;;
71606;SDS011;60641;53.556;9.914;2023-01-08T15:45:10;5.40;;;1.10;;
71606;SDS011;60641;53.556;9.914;2023-01-08T15:47:38;8.10;;;2.10;;
71606;SDS011;60641;53.556;9.914;2023-01-08T15:50:05;6.70;;;0.80;;
71606;SDS011;60641;53.556;9.914;2023-01-08T15:52:32;6.30;;;0.80;;
71606;SDS011;60641;53.556;9.914;2023-01-08T15:54:59;5.00;;;0.70;;
71606;SDS011;60641;53.556;9.914;2023-01-08T15:57:27;9.90;;;1.90;;
71606;SDS011;60641;53.556;9.914;2023-01-08T15:59:57;8.60;;;0.90;;
71606;SDS011;60641;53.556;9.914;2023-01-08T16:02:24;6.90;;;0.90;;
71606;SDS011;60641;53.556;9.914;2023-01-08T16:04:51;5.10;;;0.80;;
71606;SDS011;60641;53.556;9.914;2023-01-08T16:07:18;6.10;;;1.20;;
71606;SDS011;60641;53.556;9.914;2023-01-08T16:09:44;9.00;;;1.30;;
71606;SDS011;60641;53.556;9.914;2023-01-08T16:12:11;6.70;;;1.30;;
71606;SDS011;60641;53.556;9.914;2023-01-08T16:14:38;7.40;;;1.20;;
71606;SDS011;60641;53.556;9.914;2023-01-08T16:17:04;7.50;;;1.20;;
71606;SDS011;60641;53.556;9.914;2023-01-08T16:19:32;7.80;;;1.00;;
71606;SDS011;60641;53.556;9.914;2023-01-08T16:21:58;6.60;;;1.10;;